Latest Coastal Weather Observations for Dunalley

IDT60701

Issued at 11:12 am EDT Wednesday 18 October 2017 (issued every 10 minutes, with the page automatically refreshed every 10 minutes)

About coastal observations | Map of coastal stations | Coastal observations for TAS | Marine services | Other Formats
Station Details ID: 094254 Name: DUNALLEY (STROUD POINT) Lat: -42.90 Lon: 147.79 Height: 12.43 m
Data from the previous 72 hours. | See also: Recent months at Dunalley
Date/Time
EDT
Temp
°C
Wind Pressure Rain since
9am
mm
Weather Cloud Vis
km
Sea
Height
m
Swell
Dir  Spd
kts
Gust
kts
hPa Trend Height
m
Period
s
Dir
18/11:00am 22.8 ENE 10 13 1020.4 - 0.0 - - - - - - -
18/10:30am 21.8 ENE 10 13 1020.7 - 0.0 - - - - - - -
18/10:00am 21.1 NE 9 11 1021.0 - 0.0 - - - - - - -
18/09:30am 19.4 NE 6 8 1021.2 - 0.0 - - - - - - -
18/09:00am 19.0 NE 5 7 1021.3 - 0.0 - - - - - - -
18/08:30am 18.8 NNE 4 6 1021.3 - 0.0 - - - - - - -
18/08:00am 18.6 NNE 5 7 1021.3 - 0.0 - - - - - - -
18/07:30am 16.8 NNE 5 7 1021.2 - 0.0 - - - - - - -
18/07:00am 15.9 NNE 6 8 1021.0 - 0.0 - - - - - - -
18/06:30am 14.7 NNE 6 8 1020.8 - 0.0 - - - - - - -
18/06:00am 14.2 NNE 6 7 1020.7 - 0.0 - - - - - - -
18/05:30am 15.2 NNE 5 7 1020.3 - 0.0 - - - - - - -
18/05:00am 16.4 NNE 4 6 1020.0 - 0.0 - - - - - - -
18/04:30am 14.7 NNE 7 9 1019.8 - 0.0 - - - - - - -
18/04:00am 15.0 NNE 8 12 1019.6 - 0.0 - - - - - - -
18/03:30am 15.5 NE 9 13 1019.5 - 0.0 - - - - - - -
18/03:00am 16.4 ENE 11 14 1019.5 - 0.0 - - - - - - -
18/02:30am 16.6 NE 10 14 1019.6 - 0.0 - - - - - - -
18/02:00am 14.7 NE 8 10 1020.0 - 0.0 - - - - - - -
18/01:30am 14.5 NE 9 13 1020.1 - 0.0 - - - - - - -
18/01:00am 14.9 NE 12 15 1020.1 - 0.0 - - - - - - -
18/12:30am 14.7 ENE 12 16 1020.2 - 0.0 - - - - - - -
18/12:00am 14.4 ENE 14 17 1020.5 - 0.0 - - - - - - -
 
Date/Time
EDT
Temp
°C
Wind Pressure Rain since
9am
mm
Weather Cloud Vis
km
Sea
Height
m
Swell
Dir  Spd
kts
Gust
kts
hPa Trend Height
m
Period
s
Dir
17/11:30pm 14.5 ENE 11 14 1021.2 - 0.0 - - - - - - -
17/11:00pm 14.7 ENE 13 15 1021.7 - 0.0 - - - - - - -
17/10:30pm 14.6 ENE 12 15 1021.8 - 0.0 - - - - - - -
17/10:00pm 14.9 NE 14 16 1021.9 - 0.0 - - - - - - -
17/09:30pm 15.2 NE 15 18 1021.8 - 0.0 - - - - - - -
17/09:00pm 15.2 NE 16 19 1021.6 - 0.0 - - - - - - -
17/08:30pm 15.4 NE 15 19 1021.5 - 0.0 - - - - - - -
17/08:00pm 15.7 NE 16 19 1021.2 - 0.0 - - - - - - -
17/07:30pm 16.5 NE 15 17 1021.0 - 0.0 - - - - - - -
17/07:00pm 17.8 NE 16 18 1020.7 - 0.0 - - - - - - -
17/06:30pm 19.1 NE 16 18 1020.7 - 0.0 - - - - - - -
17/06:00pm 19.9 NE 15 17 1020.7 - 0.0 - - - - - - -
17/05:30pm 20.3 NE 15 17 1020.6 - 0.0 - - - - - - -
17/05:00pm 20.6 NE 13 15 1020.7 - 0.0 - - - - - - -
17/04:30pm 20.3 NE 14 15 1020.8 - 0.0 - - - - - - -
17/04:00pm 20.5 NE 13 15 1020.8 - 0.0 - - - - - - -
17/03:30pm 22.5 NE 11 13 1020.8 - 0.0 - - - - - - -
17/03:00pm 23.0 NE 11 13 1020.9 - 0.0 - - - - - - -
17/02:30pm 22.7 NE 10 13 1021.1 - 0.0 - - - - - - -
17/02:00pm 22.6 NE 9 11 1021.4 - 0.0 - - - - - - -
17/01:30pm 22.7 ENE 9 12 1021.5 - 0.0 - - - - - - -
17/01:00pm 20.4 NE 8 10 1021.7 - 0.0 - - - - - - -
17/12:30pm 20.0 ENE 5 7 1022.2 - 0.0 - - - - - - -
17/12:00pm 19.8 ENE 4 5 1022.3 - 0.0 - - - - - - -
17/11:30am 17.9 ENE 3 4 1022.7 - 0.0 - - - - - - -
17/11:00am 17.5 ENE 3 5 1023.0 - 0.0 - - - - - - -
17/10:30am 15.6 ENE 3 3 1023.2 - 0.0 - - - - - - -
17/10:00am 15.6 ENE 2 3 1023.2 - 0.0 - - - - - - -
17/09:30am 14.3 ENE 2 2 1023.0 - 0.0 - - - - - - -
17/09:00am 13.8 ENE 2 3 1023.0 - 0.0 - - - - - - -
17/08:30am 14.4 ENE 1 2 1022.9 - 0.0 - - - - - - -
17/08:00am 13.1 CALM 0 0 1022.8 - 0.0 - - - - - - -
17/07:30am 12.8 CALM 0 0 1022.6 - 0.0 - - - - - - -
17/07:00am 11.5 CALM 0 0 1022.1 - 0.0 - - - - - - -
17/06:30am 10.0 ENE 4 5 1021.9 - 0.0 - - - - - - -
17/06:00am 10.6 ENE 3 5 1021.8 - 0.0 - - - - - - -
17/05:30am 10.8 ENE 5 8 1021.5 - 0.0 - - - - - - -
17/05:00am 10.3 ENE 5 7 1021.5 - 0.0 - - - - - - -
17/04:30am 9.5 ENE 4 5 1021.7 - 0.0 - - - - - - -
17/04:00am 11.2 CALM 0 1 1021.8 - 0.0 - - - - - - -
17/03:30am 11.1 ENE 2 3 1022.0 - 0.0 - - - - - - -
17/03:00am 11.5 CALM 0 0 1021.9 - 0.0 - - - - - - -
17/02:30am 11.4 CALM 0 1 1022.1 - 0.0 - - - - - - -
17/02:00am 11.5 CALM 0 0 1022.5 - 0.0 - - - - - - -
17/01:30am 11.3 CALM 0 0 1022.8 - 0.0 - - - - - - -
17/01:00am 11.8 CALM 0 0 1023.0 - 0.0 - - - - - - -
17/12:30am 12.2 ENE 1 2 1023.4 - 0.0 - - - - - - -
17/12:00am 11.8 ENE 2 4 1023.5 - 0.0 - - - - - - -
 
Date/Time
EDT
Temp
°C
Wind Pressure Rain since
9am
mm
Weather Cloud Vis
km
Sea
Height
m
Swell
Dir  Spd
kts
Gust
kts
hPa Trend Height
m
Period
s
Dir
16/11:30pm 12.4 ENE 1 2 1023.7 - 0.0 - - - - - - -
16/11:00pm 12.6 ENE 3 5 1024.0 - 0.0 - - - - - - -
16/10:30pm 12.9 ENE 1 4 1024.1 - 0.0 - - - - - - -
16/10:00pm 12.3 ENE 1 3 1024.3 - 0.0 - - - - - - -
16/09:30pm 12.8 ENE 1 3 1024.4 - 0.0 - - - - - - -
16/09:00pm 13.3 ENE 6 8 1024.3 - 0.0 - - - - - - -
16/08:30pm 14.0 ENE 8 9 1024.1 - 0.0 - - - - - - -
16/08:00pm 14.0 NE 6 7 1023.8 - 0.0 - - - - - - -
16/07:30pm 14.4 NE 7 9 1023.4 - 0.0 - - - - - - -
16/07:00pm 15.2 NE 9 11 1023.2 - 0.0 - - - - - - -
16/06:30pm 16.1 ENE 9 12 1023.0 - 0.0 - - - - - - -
16/06:00pm 17.0 ENE 11 13 1022.8 - 0.0 - - - - - - -
16/05:30pm 18.2 NE 13 16 1022.6 - 0.0 - - - - - - -
16/05:00pm 18.5 NE 15 18 1022.5 - 0.0 - - - - - - -
16/04:30pm 18.3 NE 16 19 1022.4 - 0.0 - - - - - - -
16/04:00pm 18.1 NE 17 20 1022.5 - 0.0 - - - - - - -
16/03:30pm 19.3 NE 15 17 1022.7 - 0.0 - - - - - - -
16/03:00pm 20.7 NE 14 16 1022.9 - 0.0 - - - - - - -
16/02:30pm 20.1 NE 13 16 1023.1 - 0.0 - - - - - - -
16/02:00pm 19.8 NE 14 15 1023.5 - 0.0 - - - - - - -
16/01:30pm 19.7 NE 13 16 1023.6 - 0.0 - - - - - - -
16/01:00pm 19.2 NE 12 14 1023.7 - 0.0 - - - - - - -
16/12:30pm 19.0 NE 12 15 1024.0 - 0.0 - - - - - - -
16/12:00pm 18.6 NE 11 14 1024.2 - 0.0 - - - - - - -
16/11:30am 18.0 NE 11 12 1024.6 - 0.0 - - - - - - -
16/11:00am 17.3 NE 10 12 1024.9 - 0.0 - - - - - - -
16/10:30am 16.6 ENE 10 11 1025.2 - 0.0 - - - - - - -
16/10:00am 16.3 NE 9 11 1025.3 - 0.0 - - - - - - -
16/09:30am 15.8 ENE 7 11 1025.3 - 0.0 - - - - - - -
16/09:00am 14.9 ENE 7 9 1025.2 - 0.0 - - - - - - -
16/08:30am 14.1 NE 6 7 1025.3 - 0.0 - - - - - - -
16/08:00am 11.8 CALM 0 0 1025.4 - 0.0 - - - - - - -
16/07:30am 10.9 CALM 0 0 1025.3 - 0.0 - - - - - - -
16/07:00am 9.8 CALM 0 0 1025.1 - 0.0 - - - - - - -
16/06:30am 10.3 CALM 0 2 1024.9 - 0.0 - - - - - - -
16/06:00am 10.2 CALM 0 0 1024.7 - 0.0 - - - - - - -
16/05:30am 10.0 NE 2 3 1024.5 - 0.0 - - - - - - -
16/05:00am 9.8 NE 4 5 1024.5 - 0.0 - - - - - - -
16/04:30am 9.8 NE 4 4 1024.6 - 0.0 - - - - - - -
16/04:00am 10.5 NE 4 5 1024.8 - 0.0 - - - - - - -
16/03:30am 10.4 NE 3 4 1024.9 - 0.0 - - - - - - -
16/03:00am 10.4 NE 3 4 1025.2 - 0.0 - - - - - - -
16/02:30am 11.2 NE 5 6 1025.4 - 0.0 - - - - - - -
16/02:00am 12.1 NE 8 10 1025.5 - 0.0 - - - - - - -
16/01:30am 12.6 NE 12 15 1025.6 - 0.0 - - - - - - -
16/01:00am 12.6 NE 13 16 1025.8 - 0.0 - - - - - - -
16/12:30am 12.4 NE 13 18 1025.8 - 0.0 - - - - - - -
16/12:00am 12.4 ENE 15 18 1025.6 - 0.0 - - - - - - -
 
Date/Time
EDT
Temp
°C
Wind Pressure Rain since
9am
mm
Weather Cloud Vis
km
Sea
Height
m
Swell
Dir  Spd
kts
Gust
kts
hPa Trend Height
m
Period
s
Dir
15/11:30pm 12.3 ENE 15 19 1025.5 - 0.0 - - - - - - -
15/11:00pm 12.4 NE 14 17 1025.5 - 0.0 - - - - - - -
15/10:30pm 12.4 NE 16 21 1025.3 - 0.0 - - - - - - -
15/10:00pm 12.5 NE 17 20 1025.1 - 0.0 - - - - - - -
15/09:30pm 12.4 NE 17 21 1025.0 - 0.0 - - - - - - -
15/09:00pm 12.3 NE 18 22 1024.7 - 0.0 - - - - - - -
15/08:30pm 12.7 NE 20 23 1024.2 - 0.0 - - - - - - -
15/08:00pm 12.5 NE 19 24 1024.0 - 0.0 - - - - - - -
15/07:30pm 12.9 NE 18 25 1023.4 - 0.0 - - - - - - -
15/07:00pm 13.1 NE 16 19 1023.3 - 0.0 - - - - - - -
15/06:30pm 13.9 NE 17 20 1022.9 - 0.0 - - - - - - -
15/06:00pm 14.5 NE 17 20 1022.5 - 0.0 - - - - - - -
15/05:30pm 15.4 NE 16 20 1022.4 - 0.0 - - - - - - -
15/05:00pm 15.7 NE 18 22 1022.1 - 0.0 - - - - - - -
15/04:30pm 16.4 NE 18 21 1021.6 - 0.0 - - - - - - -
15/04:00pm 16.7 NE 18 21 1021.5 - 0.0 - - - - - - -
15/03:30pm 17.0 NE 18 21 1021.3 - 0.0 - - - - - - -
15/03:00pm 17.3 NE 19 23 1021.2 - 0.0 - - - - - - -
15/02:30pm 18.3 NE 17 21 1020.9 - 0.0 - - - - - - -
15/02:24pm 18.8 NE 15 20 1020.9 - 0.0 - - - - - - -
15/02:00pm 20.5 SSE 5 8 1020.8 - 0.0 - - - - - - -
15/01:30pm 20.8 SSW 7 8 1020.7 - 0.0 - - - - - - -
15/01:00pm 20.4 SSW 6 8 1020.5 - 0.0 - - - - - - -
15/12:30pm 18.7 SW 9 11 1020.4 - 0.0 - - - - - - -
15/12:00pm 18.6 SW 9 13 1020.3 - 0.0 - - - - - - -
15/11:30am 19.1 WSW 11 15 1020.5 - 0.0 - - - - - - -

Other Formats:

Comma delimited format used in spreadsheet applications
http://www.bom.gov.au/fwo/IDT60701/IDT60701.94951.axf

JavaScript Object Notation format (JSON) in row-major order
http://www.bom.gov.au/fwo/IDT60701/IDT60701.94951.json